Time;durP1;ratioP1;P1;durP2;ratioP2;P2;SDS_P1;SDS_P2;PMS_P1;PMS_P2;Temp;Humidity;BMP_temperature;BMP_pressure;BME280_temperature;BME280_humidity;BME280_pressure;Samples;Min_cycle;Max_cycle;Signal;HPM_P1;HPM_P2
2024/04/06 00:00:20;;;;;;;246.00;79.80;;;;;;;;;;5033021;28;20987;-45
2024/04/06 00:02:46;;;;;;;244.37;76.33;;;;;;;;;;5033048;28;20967;-47
2024/04/06 00:05:13;;;;;;;248.50;83.40;;;;;;;;;;5032919;28;20908;-45
2024/04/06 00:07:39;;;;;;;246.07;80.30;;;;;;;;;;5032994;28;20832;-45
2024/04/06 00:10:05;;;;;;;245.70;79.70;;;;;;;;;;5032788;28;20433;-45
2024/04/06 00:12:31;;;;;;;246.33;80.63;;;;;;;;;;5032837;28;20454;-46
2024/04/06 00:14:57;;;;;;;246.97;82.07;;;;;;;;;;5032659;28;20503;-47
2024/04/06 00:17:23;;;;;;;245.83;77.73;;;;;;;;;;5032814;28;20468;-45
2024/04/06 00:19:49;;;;;;;248.20;81.43;;;;;;;;;;5032531;28;20433;-45
2024/04/06 00:22:15;;;;;;;246.37;82.20;;;;;;;;;;5032766;28;20414;-44
2024/04/06 00:24:41;;;;;;;245.77;79.33;;;;;;;;;;5032622;28;20449;-44
2024/04/06 00:27:07;;;;;;;242.70;75.63;;;;;;;;;;5032009;28;20467;-46
2024/04/06 00:29:33;;;;;;;244.47;79.63;;;;;;;;;;5032499;28;20469;-46
2024/04/06 00:31:58;;;;;;;244.47;74.87;;;;;;;;;;5032387;28;20414;-45
2024/04/06 00:34:24;;;;;;;242.90;75.10;;;;;;;;;;5032582;28;20987;-45
2024/04/06 00:36:50;;;;;;;245.93;77.90;;;;;;;;;;5031998;28;20960;-45
2024/04/06 00:39:16;;;;;;;246.23;78.60;;;;;;;;;;5032635;28;20460;-44
2024/04/06 00:41:42;;;;;;;244.80;78.43;;;;;;;;;;5032134;28;20422;-46
2024/04/06 00:44:08;;;;;;;245.23;77.73;;;;;;;;;;5025016;28;20417;-45
2024/04/06 00:46:34;;;;;;;250.07;83.90;;;;;;;;;;5031959;28;20430;-45
2024/04/06 00:49:00;;;;;;;246.10;80.27;;;;;;;;;;5031513;28;20410;-46
2024/04/06 00:51:26;;;;;;;245.57;79.63;;;;;;;;;;5031937;28;20457;-45
2024/04/06 00:53:52;;;;;;;248.87;82.17;;;;;;;;;;5031933;28;20414;-44
2024/04/06 00:56:18;;;;;;;245.53;78.93;;;;;;;;;;5031656;28;20486;-46
2024/04/06 00:58:45;;;;;;;246.47;80.03;;;;;;;;;;5031967;28;20886;-45
2024/04/06 01:01:11;;;;;;;243.97;77.07;;;;;;;;;;5031996;28;20423;-45
2024/04/06 01:03:37;;;;;;;243.80;75.37;;;;;;;;;;5031402;28;20414;-46
2024/04/06 01:06:04;;;;;;;242.17;72.77;;;;;;;;;;5030745;28;20921;-45
2024/04/06 01:08:29;;;;;;;243.87;75.17;;;;;;;;;;5031170;28;20497;-45
2024/04/06 01:10:56;;;;;;;244.77;78.37;;;;;;;;;;5031369;28;20476;-46
2024/04/06 01:13:22;;;;;;;244.60;77.27;;;;;;;;;;5031651;28;20415;-45
2024/04/06 01:15:48;;;;;;;250.73;88.80;;;;;;;;;;5031214;28;20470;-45
2024/04/06 01:18:14;;;;;;;243.57;75.80;;;;;;;;;;5031652;28;20425;-46
2024/04/06 01:20:43;;;;;;;249.77;89.13;;;;;;;;;;5031739;28;20954;-45
2024/04/06 01:23:11;;;;;;;246.87;81.63;;;;;;;;;;5024462;28;20410;-46
2024/04/06 01:25:37;;;;;;;249.17;82.27;;;;;;;;;;5030995;28;20411;-45
2024/04/06 01:28:04;;;;;;;247.13;81.07;;;;;;;;;;5031373;28;20501;-47
2024/04/06 01:30:30;;;;;;;243.17;76.67;;;;;;;;;;5031483;28;20787;-45
2024/04/06 01:32:56;;;;;;;247.75;82.72;;;;;;;;;;5031179;28;20930;-46
2024/04/06 01:35:21;;;;;;;250.73;89.10;;;;;;;;;;5031141;28;20192;-45
2024/04/06 01:37:48;;;;;;;246.53;78.00;;;;;;;;;;5031054;28;20466;-46
2024/04/06 01:40:14;;;;;;;248.27;80.13;;;;;;;;;;5031119;28;20569;-44
2024/04/06 01:42:41;;;;;;;245.97;80.20;;;;;;;;;;5031313;28;20464;-44
2024/04/06 01:45:07;;;;;;;247.47;81.20;;;;;;;;;;5031033;28;20402;-46
2024/04/06 01:47:33;;;;;;;245.93;79.10;;;;;;;;;;5031045;28;20434;-46
2024/04/06 01:50:01;;;;;;;245.70;78.23;;;;;;;;;;5030858;28;21301;-46
2024/04/06 01:52:27;;;;;;;246.60;80.27;;;;;;;;;;5030900;28;20415;-44
2024/04/06 01:54:53;;;;;;;248.50;83.03;;;;;;;;;;5030895;28;20415;-44
2024/04/06 01:57:19;;;;;;;245.53;79.97;;;;;;;;;;5030804;28;20710;-47
2024/04/06 01:59:46;;;;;;;245.23;78.03;;;;;;;;;;5030809;28;20524;-46
2024/04/06 02:02:12;;;;;;;244.60;80.35;;;;;;;;;;5031003;28;20411;-45
2024/04/06 02:04:40;;;;;;;247.17;81.33;;;;;;;;;;5031078;28;20184;-45
2024/04/06 02:07:08;;;;;;;244.60;78.47;;;;;;;;;;5030420;28;21046;-46
2024/04/06 02:09:34;;;;;;;251.97;87.17;;;;;;;;;;5030515;28;20918;-45
2024/04/06 02:12:00;;;;;;;245.17;78.50;;;;;;;;;;5030661;28;20411;-46
2024/04/06 02:14:26;;;;;;;243.47;77.60;;;;;;;;;;5030860;28;20919;-45
2024/04/06 02:16:51;;;;;;;245.33;77.73;;;;;;;;;;5030631;28;20807;-44
2024/04/06 02:19:17;;;;;;;246.17;79.87;;;;;;;;;;5030623;28;20772;-44
2024/04/06 02:21:43;;;;;;;244.20;78.20;;;;;;;;;;5030314;28;20491;-45
2024/04/06 02:24:09;;;;;;;243.77;76.93;;;;;;;;;;5030936;28;20780;-45
2024/04/06 02:26:36;;;;;;;245.37;77.97;;;;;;;;;;5030518;28;20937;-45
2024/04/06 02:29:02;;;;;;;245.93;78.13;;;;;;;;;;5029587;28;20406;-45
2024/04/06 02:31:28;;;;;;;246.17;78.90;;;;;;;;;;5030722;28;20523;-46
2024/04/06 02:33:54;;;;;;;244.47;77.17;;;;;;;;;;5030342;28;20497;-46
2024/04/06 02:36:20;;;;;;;245.17;79.80;;;;;;;;;;5030355;28;20554;-44
2024/04/06 02:38:47;;;;;;;245.77;78.87;;;;;;;;;;5030786;28;20430;-45
2024/04/06 02:41:13;;;;;;;244.23;75.10;;;;;;;;;;5030580;28;20441;-46
2024/04/06 02:43:39;;;;;;;242.50;74.97;;;;;;;;;;5030677;28;20412;-45
2024/04/06 02:46:05;;;;;;;244.63;77.80;;;;;;;;;;5030443;28;20414;-45
2024/04/06 02:48:31;;;;;;;243.57;74.43;;;;;;;;;;5030739;28;20461;-45
2024/04/06 02:50:57;;;;;;;246.83;79.43;;;;;;;;;;5030415;28;20434;-45
2024/04/06 02:53:23;;;;;;;244.53;77.73;;;;;;;;;;5030589;28;20415;-45
2024/04/06 02:55:50;;;;;;;244.70;74.10;;;;;;;;;;5030167;28;20536;-45
2024/04/06 02:58:16;;;;;;;243.27;74.77;;;;;;;;;;5030433;28;20474;-45
2024/04/06 03:00:42;;;;;;;246.93;78.30;;;;;;;;;;5030545;28;20446;-46
2024/04/06 03:03:08;;;;;;;246.97;77.20;;;;;;;;;;5030531;28;20412;-45
2024/04/06 03:05:34;;;;;;;246.73;77.50;;;;;;;;;;5030145;28;20407;-45
2024/04/06 03:08:00;;;;;;;243.43;75.50;;;;;;;;;;5030577;28;20402;-45
2024/04/06 03:10:27;;;;;;;246.70;77.77;;;;;;;;;;5030553;28;20426;-44
2024/04/06 03:12:53;;;;;;;244.33;74.00;;;;;;;;;;5031397;28;20410;-44
2024/04/06 03:15:19;;;;;;;245.57;76.20;;;;;;;;;;5033911;28;20494;-47
2024/04/06 03:17:45;;;;;;;243.97;76.30;;;;;;;;;;5033780;28;20523;-45
2024/04/06 03:20:11;;;;;;;244.33;74.37;;;;;;;;;;5034295;28;20445;-46
2024/04/06 03:22:37;;;;;;;241.67;70.90;;;;;;;;;;5034008;28;20402;-45
2024/04/06 03:25:04;;;;;;;246.50;77.07;;;;;;;;;;5033660;28;20425;-45
2024/04/06 03:27:30;;;;;;;245.73;78.63;;;;;;;;;;5033791;28;20429;-47
2024/04/06 03:29:56;;;;;;;243.50;72.47;;;;;;;;;;5033863;28;20817;-44
2024/04/06 03:32:22;;;;;;;243.17;73.37;;;;;;;;;;5033841;28;20813;-44
2024/04/06 03:34:48;;;;;;;245.10;77.03;;;;;;;;;;5033637;28;20869;-45
2024/04/06 03:37:14;;;;;;;246.97;80.07;;;;;;;;;;5033410;28;20866;-45
2024/04/06 03:39:39;;;;;;;249.13;78.30;;;;;;;;;;5034127;28;20757;-44
2024/04/06 03:42:05;;;;;;;243.13;74.03;;;;;;;;;;5033612;28;20413;-45
2024/04/06 03:44:31;;;;;;;244.47;73.73;;;;;;;;;;5033565;28;20791;-44
2024/04/06 03:46:57;;;;;;;243.07;72.57;;;;;;;;;;5033133;28;20419;-44
2024/04/06 03:49:23;;;;;;;242.37;72.27;;;;;;;;;;5033788;28;20421;-45
2024/04/06 03:51:49;;;;;;;245.60;73.17;;;;;;;;;;5033851;28;20779;-46
2024/04/06 03:54:15;;;;;;;245.17;73.87;;;;;;;;;;5033430;28;20924;-44
2024/04/06 03:56:41;;;;;;;248.40;82.33;;;;;;;;;;5033045;28;21004;-46
2024/04/06 03:59:07;;;;;;;241.37;71.90;;;;;;;;;;5033323;28;20410;-46
2024/04/06 04:01:34;;;;;;;242.07;72.13;;;;;;;;;;5033198;28;20437;-44
2024/04/06 04:04:00;;;;;;;244.87;74.87;;;;;;;;;;5033485;28;20465;-45
2024/04/06 04:06:26;;;;;;;243.67;73.37;;;;;;;;;;5033042;28;21100;-44
2024/04/06 04:08:52;;;;;;;245.47;75.53;;;;;;;;;;5033125;28;20449;-45
2024/04/06 04:11:18;;;;;;;244.70;73.93;;;;;;;;;;5033670;28;20473;-44
2024/04/06 04:13:44;;;;;;;246.70;80.13;;;;;;;;;;5032978;28;20414;-45
2024/04/06 04:16:10;;;;;;;245.83;76.03;;;;;;;;;;5032667;28;20474;-45
2024/04/06 04:18:36;;;;;;;244.67;75.07;;;;;;;;;;5032891;28;20495;-46
2024/04/06 04:21:02;;;;;;;245.37;74.70;;;;;;;;;;5032847;28;20838;-45
2024/04/06 04:23:28;;;;;;;244.00;74.00;;;;;;;;;;5032772;28;20412;-45
2024/04/06 04:25:54;;;;;;;245.60;76.10;;;;;;;;;;5032662;28;20433;-45
2024/04/06 04:28:20;;;;;;;245.03;74.17;;;;;;;;;;5032701;28;20414;-44
2024/04/06 04:30:46;;;;;;;244.03;73.27;;;;;;;;;;5032508;28;20522;-45
2024/04/06 04:33:12;;;;;;;242.97;73.10;;;;;;;;;;5032990;28;20420;-46
2024/04/06 04:35:38;;;;;;;246.63;78.07;;;;;;;;;;5032507;28;20418;-45
2024/04/06 04:38:04;;;;;;;245.43;75.77;;;;;;;;;;5032501;28;20411;-44
2024/04/06 04:40:30;;;;;;;245.03;74.60;;;;;;;;;;5032457;28;20513;-44
2024/04/06 04:42:55;;;;;;;246.93;76.77;;;;;;;;;;5032434;28;20417;-44
2024/04/06 04:45:21;;;;;;;244.23;74.13;;;;;;;;;;5032640;28;20419;-45
2024/04/06 04:47:47;;;;;;;243.43;73.43;;;;;;;;;;5032288;28;20504;-45
2024/04/06 04:50:13;;;;;;;244.60;74.63;;;;;;;;;;5032374;28;20483;-44
2024/04/06 04:52:39;;;;;;;244.97;74.97;;;;;;;;;;5032671;28;20414;-44
2024/04/06 04:55:05;;;;;;;247.63;78.50;;;;;;;;;;5032126;28;20506;-44
2024/04/06 04:57:31;;;;;;;243.67;74.60;;;;;;;;;;5032103;28;20465;-44
2024/04/06 04:59:57;;;;;;;243.70;74.23;;;;;;;;;;5031882;28;20436;-44
2024/04/06 05:02:24;;;;;;;244.60;75.30;;;;;;;;;;5032124;28;20922;-44
2024/04/06 05:04:50;;;;;;;246.37;75.93;;;;;;;;;;5032254;28;20467;-45
2024/04/06 05:07:16;;;;;;;242.67;74.40;;;;;;;;;;5031823;28;20418;-45
2024/04/06 05:09:42;;;;;;;245.53;72.63;;;;;;;;;;5031967;28;20500;-46
2024/04/06 05:12:08;;;;;;;243.17;71.73;;;;;;;;;;5031964;28;20414;-44
2024/04/06 05:14:34;;;;;;;243.00;72.20;;;;;;;;;;5031986;28;20479;-46
2024/04/06 05:16:59;;;;;;;242.40;71.90;;;;;;;;;;5031496;28;20470;-44
2024/04/06 05:19:25;;;;;;;239.80;69.33;;;;;;;;;;5031692;28;20402;-45
2024/04/06 05:21:51;;;;;;;244.80;74.97;;;;;;;;;;5031795;28;20894;-45
2024/04/06 05:24:18;;;;;;;245.17;72.43;;;;;;;;;;5031683;28;20410;-45
2024/04/06 05:26:45;;;;;;;245.07;77.63;;;;;;;;;;5031320;28;20439;-44
2024/04/06 05:29:11;;;;;;;240.57;68.67;;;;;;;;;;5031418;28;20407;-44
2024/04/06 05:31:38;;;;;;;247.20;80.03;;;;;;;;;;5031576;28;20426;-44
2024/04/06 05:34:05;;;;;;;241.03;72.10;;;;;;;;;;5031080;28;20447;-45
2024/04/06 05:36:31;;;;;;;245.97;76.63;;;;;;;;;;5026672;28;21042;-45
2024/04/06 05:38:57;;;;;;;246.87;79.77;;;;;;;;;;5031418;28;20414;-46
2024/04/06 05:41:24;;;;;;;248.67;79.80;;;;;;;;;;5032004;28;20436;-44
2024/04/06 05:43:52;;;;;;;245.93;77.30;;;;;;;;;;5031295;28;20411;-42
2024/04/06 05:46:19;;;;;;;246.00;77.55;;;;;;;;;;5031084;28;20184;-43
2024/04/06 05:48:44;;;;;;;245.93;77.83;;;;;;;;;;5031188;28;20183;-42
2024/04/06 05:51:10;;;;;;;248.57;82.60;;;;;;;;;;5031393;28;20942;-43
2024/04/06 05:53:36;;;;;;;249.47;82.93;;;;;;;;;;5031225;28;20932;-42
2024/04/06 05:56:02;;;;;;;247.47;81.60;;;;;;;;;;5031099;28;20873;-43
2024/04/06 05:58:28;;;;;;;247.43;81.43;;;;;;;;;;5031006;28;20423;-42
2024/04/06 06:00:54;;;;;;;245.00;78.87;;;;;;;;;;5030424;28;20985;-45
2024/04/06 06:03:20;;;;;;;246.43;77.00;;;;;;;;;;5030661;28;20415;-42
2024/04/06 06:05:46;;;;;;;248.93;80.90;;;;;;;;;;5030375;28;20422;-42
2024/04/06 06:08:12;;;;;;;247.17;81.47;;;;;;;;;;5030501;28;20780;-43
2024/04/06 06:10:38;;;;;;;245.87;79.27;;;;;;;;;;5030828;28;20805;-43
2024/04/06 06:13:04;;;;;;;247.97;80.60;;;;;;;;;;5031382;28;20858;-45
2024/04/06 06:15:31;;;;;;;253.17;88.67;;;;;;;;;;5030680;28;20445;-45
2024/04/06 06:17:57;;;;;;;249.37;83.00;;;;;;;;;;5030753;28;20459;-42
2024/04/06 06:20:23;;;;;;;245.97;80.17;;;;;;;;;;5030805;28;20440;-45
2024/04/06 06:22:49;;;;;;;250.07;81.27;;;;;;;;;;5030763;28;20424;-43
2024/04/06 06:25:15;;;;;;;250.53;85.80;;;;;;;;;;5030666;28;20505;-45
2024/04/06 06:27:41;;;;;;;250.37;85.87;;;;;;;;;;5030645;28;20441;-42
2024/04/06 06:30:07;;;;;;;249.80;85.97;;;;;;;;;;5030597;28;20500;-43
2024/04/06 06:32:33;;;;;;;253.57;91.83;;;;;;;;;;5030789;28;20410;-43
2024/04/06 06:34:59;;;;;;;247.60;81.07;;;;;;;;;;5030841;28;20455;-42
2024/04/06 06:37:25;;;;;;;249.33;82.93;;;;;;;;;;5030864;28;20501;-43
2024/04/06 06:39:51;;;;;;;248.97;83.93;;;;;;;;;;5030666;28;20436;-42
2024/04/06 06:42:17;;;;;;;246.10;79.50;;;;;;;;;;5030578;28;20471;-44
2024/04/06 06:44:43;;;;;;;242.63;76.83;;;;;;;;;;5030580;28;20412;-47
2024/04/06 06:47:09;;;;;;;250.00;87.47;;;;;;;;;;5030401;28;20509;-42
2024/04/06 06:49:35;;;;;;;253.17;89.47;;;;;;;;;;5034494;28;20425;-43
2024/04/06 06:52:01;;;;;;;250.93;87.97;;;;;;;;;;5034912;28;20414;-43
2024/04/06 06:54:27;;;;;;;248.83;85.37;;;;;;;;;;5034563;28;20769;-43
2024/04/06 06:56:54;;;;;;;253.17;87.60;;;;;;;;;;5034093;28;20464;-42
2024/04/06 06:59:20;;;;;;;254.67;91.37;;;;;;;;;;5034558;28;20406;-43
2024/04/06 07:01:46;;;;;;;251.07;88.27;;;;;;;;;;5034277;28;20517;-43
2024/04/06 07:04:12;;;;;;;252.47;90.00;;;;;;;;;;5034294;28;20458;-43
2024/04/06 07:06:38;;;;;;;253.77;89.37;;;;;;;;;;5034023;28;20414;-43
2024/04/06 07:09:05;;;;;;;254.77;93.47;;;;;;;;;;5034286;28;20902;-43
2024/04/06 07:11:31;;;;;;;253.23;88.03;;;;;;;;;;5030572;28;20496;-43
2024/04/06 07:13:57;;;;;;;251.33;87.93;;;;;;;;;;5033615;28;20586;-43
2024/04/06 07:16:25;;;;;;;253.77;91.57;;;;;;;;;;5034176;28;20764;-44
2024/04/06 07:18:51;;;;;;;253.73;90.83;;;;;;;;;;5035532;28;20707;-42
2024/04/06 07:21:17;;;;;;;253.60;91.77;;;;;;;;;;5042029;28;20435;-42
2024/04/06 07:23:43;;;;;;;259.93;101.83;;;;;;;;;;5036179;28;20429;-46
2024/04/06 07:26:09;;;;;;;256.43;94.60;;;;;;;;;;5033374;28;20877;-43
2024/04/06 07:28:38;;;;;;;256.17;94.70;;;;;;;;;;5033718;28;20416;-45
2024/04/06 07:31:05;;;;;;;260.53;105.23;;;;;;;;;;5035350;28;20493;-42
2024/04/06 07:33:31;;;;;;;258.30;96.57;;;;;;;;;;5033662;28;20490;-42
2024/04/06 07:35:57;;;;;;;259.33;101.87;;;;;;;;;;5033207;28;20417;-45
2024/04/06 07:38:27;;;;;;;255.30;95.73;;;;;;;;;;5033537;28;20429;-43
2024/04/06 07:40:59;;;;;;;260.27;101.73;;;;;;;;;;5040689;28;20418;-42
2024/04/06 07:43:26;;;;;;;262.20;109.13;;;;;;;;;;5034166;28;20413;-42
2024/04/06 07:45:52;;;;;;;260.30;103.70;;;;;;;;;;5035298;28;20414;-45
2024/04/06 07:48:18;;;;;;;262.83;105.17;;;;;;;;;;5037141;28;20417;-43
2024/04/06 07:50:44;;;;;;;261.53;102.63;;;;;;;;;;5033086;28;20430;-43
2024/04/06 07:53:11;;;;;;;261.57;107.60;;;;;;;;;;5033151;28;20909;-42
2024/04/06 07:55:36;;;;;;;259.53;107.00;;;;;;;;;;5033075;28;20414;-46
2024/04/06 07:58:02;;;;;;;261.77;107.87;;;;;;;;;;5033028;28;20516;-43
2024/04/06 08:00:28;;;;;;;257.77;107.03;;;;;;;;;;5032901;28;20430;-43
2024/04/06 08:02:54;;;;;;;266.20;119.30;;;;;;;;;;5033623;28;20475;-43
2024/04/06 08:05:21;;;;;;;263.40;118.23;;;;;;;;;;5038431;28;20410;-44
2024/04/06 08:07:46;;;;;;;263.70;117.33;;;;;;;;;;5039740;28;20417;-45
2024/04/06 08:10:22;;;;;;;262.00;118.97;;;;;;;;;;5032993;28;20462;-43
2024/04/06 08:12:49;;;;;;;261.90;117.17;;;;;;;;;;5032833;28;20434;-43
2024/04/06 08:15:16;;;;;;;265.43;117.47;;;;;;;;;;5031672;28;20841;-43
2024/04/06 08:17:42;;;;;;;264.67;119.87;;;;;;;;;;5032679;28;20828;-44
2024/04/06 08:20:09;;;;;;;263.67;122.67;;;;;;;;;;5036199;28;20456;-44
2024/04/06 08:22:35;;;;;;;263.47;125.17;;;;;;;;;;5039596;28;20413;-43
2024/04/06 08:25:05;;;;;;;267.13;131.87;;;;;;;;;;5032682;28;20456;-43
2024/04/06 08:27:31;;;;;;;259.40;115.53;;;;;;;;;;5034852;28;20441;-45
2024/04/06 08:29:57;;;;;;;261.40;120.33;;;;;;;;;;5032688;28;20426;-44
2024/04/06 08:32:23;;;;;;;260.40;120.47;;;;;;;;;;5032838;28;20413;-44
2024/04/06 08:34:54;;;;;;;263.40;123.30;;;;;;;;;;5032484;28;20414;-44
2024/04/06 08:37:20;;;;;;;259.90;119.53;;;;;;;;;;5032151;28;20469;-44
2024/04/06 08:39:46;;;;;;;262.30;126.90;;;;;;;;;;5032466;28;20829;-43
2024/04/06 08:42:17;;;;;;;261.17;121.80;;;;;;;;;;5032765;28;20784;-43
2024/04/06 08:44:43;;;;;;;262.57;125.63;;;;;;;;;;5032609;28;21009;-42
2024/04/06 08:47:12;;;;;;;260.93;122.57;;;;;;;;;;5032393;28;20414;-43
2024/04/06 08:49:38;;;;;;;264.67;125.33;;;;;;;;;;5032498;28;20468;-43
2024/04/06 08:52:04;;;;;;;266.33;132.40;;;;;;;;;;5032326;28;20406;-43
2024/04/06 08:54:31;;;;;;;261.63;124.77;;;;;;;;;;5029084;28;20414;-43
2024/04/06 08:56:58;;;;;;;263.23;122.37;;;;;;;;;;5031004;28;20556;-43
2024/04/06 08:59:24;;;;;;;266.87;126.23;;;;;;;;;;5031767;28;20968;-45
2024/04/06 09:01:50;;;;;;;264.33;125.03;;;;;;;;;;5030662;28;20434;-45
2024/04/06 09:04:16;;;;;;;264.03;125.53;;;;;;;;;;5030396;28;20785;-43
2024/04/06 09:06:44;;;;;;;262.13;123.13;;;;;;;;;;5030616;28;20437;-43
2024/04/06 09:09:10;;;;;;;261.83;121.43;;;;;;;;;;5031149;28;21191;-43
2024/04/06 09:11:38;;;;;;;262.23;123.97;;;;;;;;;;5030206;28;20429;-43
2024/04/06 09:14:08;;;;;;;263.53;130.97;;;;;;;;;;5031374;28;20422;-44
2024/04/06 09:16:34;;;;;;;265.53;129.90;;;;;;;;;;5031405;28;20971;-45
2024/04/06 09:19:00;;;;;;;261.27;126.23;;;;;;;;;;5031834;28;20434;-43
2024/04/06 09:21:26;;;;;;;261.40;126.50;;;;;;;;;;5031725;28;20889;-43
2024/04/06 09:23:55;;;;;;;263.13;130.70;;;;;;;;;;5031937;28;20425;-43
2024/04/06 09:26:22;;;;;;;260.10;125.63;;;;;;;;;;5031407;28;20965;-44
2024/04/06 09:28:51;;;;;;;262.10;129.77;;;;;;;;;;5031581;28;20410;-45
2024/04/06 09:31:22;;;;;;;265.87;134.00;;;;;;;;;;5031575;28;20433;-43
2024/04/06 09:33:52;;;;;;;264.20;131.83;;;;;;;;;;5031721;28;20456;-44
2024/04/06 09:36:19;;;;;;;267.70;141.67;;;;;;;;;;5031578;28;20549;-44
2024/04/06 09:38:47;;;;;;;264.33;134.23;;;;;;;;;;5031497;28;20772;-43
2024/04/06 09:41:16;;;;;;;261.87;130.70;;;;;;;;;;5031401;28;20496;-44
2024/04/06 09:43:42;;;;;;;264.30;132.97;;;;;;;;;;5031322;28;20505;-44
2024/04/06 09:46:08;;;;;;;262.40;133.40;;;;;;;;;;5031210;28;20968;-43
2024/04/06 09:48:35;;;;;;;262.93;135.17;;;;;;;;;;5031365;28;20410;-44
2024/04/06 09:51:03;;;;;;;264.10;137.27;;;;;;;;;;5031548;28;20936;-43
2024/04/06 09:53:29;;;;;;;262.23;134.07;;;;;;;;;;5030298;28;20493;-43
2024/04/06 09:55:55;;;;;;;262.20;133.60;;;;;;;;;;5030950;28;20497;-43
2024/04/06 09:58:28;;;;;;;265.90;139.67;;;;;;;;;;5030945;28;20789;-43
2024/04/06 10:00:54;;;;;;;262.07;133.80;;;;;;;;;;5030982;28;20491;-43
2024/04/06 10:03:21;;;;;;;266.37;143.50;;;;;;;;;;5031241;28;20414;-44
2024/04/06 10:05:49;;;;;;;267.70;146.60;;;;;;;;;;5030799;28;20406;-44
2024/04/06 10:08:17;;;;;;;266.63;145.03;;;;;;;;;;5030997;28;20413;-43
2024/04/06 10:10:46;;;;;;;265.93;148.30;;;;;;;;;;5031298;28;20433;-43
2024/04/06 10:13:21;;;;;;;265.87;148.03;;;;;;;;;;5031179;28;20406;-43
2024/04/06 10:15:47;;;;;;;268.00;158.50;;;;;;;;;;5030773;28;20406;-43
2024/04/06 10:18:14;;;;;;;265.33;151.30;;;;;;;;;;5030858;28;20442;-43
2024/04/06 10:20:40;;;;;;;266.23;152.47;;;;;;;;;;5031146;28;20431;-44
2024/04/06 10:23:07;;;;;;;264.50;151.23;;;;;;;;;;5030462;28;20929;-43
2024/04/06 10:25:39;;;;;;;264.13;144.00;;;;;;;;;;5030363;28;20411;-43
2024/04/06 10:28:06;;;;;;;264.00;147.73;;;;;;;;;;5030726;28;20417;-43
2024/04/06 10:30:32;;;;;;;265.57;157.20;;;;;;;;;;5030572;28;20449;-43
2024/04/06 10:32:58;;;;;;;267.17;159.60;;;;;;;;;;5030927;28;20449;-47
2024/04/06 10:35:25;;;;;;;272.40;175.07;;;;;;;;;;5030665;28;20809;-43
2024/04/06 10:37:51;;;;;;;268.50;164.07;;;;;;;;;;5029849;28;20549;-44
2024/04/06 10:40:18;;;;;;;269.13;166.33;;;;;;;;;;5030521;28;20510;-46
2024/04/06 10:42:44;;;;;;;266.07;155.10;;;;;;;;;;5030809;28;20406;-44
2024/04/06 10:45:11;;;;;;;270.60;159.43;;;;;;;;;;5030824;28;20448;-44
2024/04/06 10:47:40;;;;;;;266.13;147.50;;;;;;;;;;5030641;28;20842;-43
2024/04/06 10:50:08;;;;;;;265.83;143.10;;;;;;;;;;5030465;28;20482;-45
2024/04/06 10:52:34;;;;;;;268.63;143.77;;;;;;;;;;5030641;28;20411;-43
2024/04/06 10:55:09;;;;;;;265.23;137.40;;;;;;;;;;5030745;28;20417;-43
2024/04/06 10:57:35;;;;;;;265.97;135.07;;;;;;;;;;5030590;28;20883;-43
2024/04/06 11:00:01;;;;;;;265.03;132.20;;;;;;;;;;5030476;28;20548;-43
2024/04/06 11:02:27;;;;;;;267.30;139.83;;;;;;;;;;5030598;28;20501;-44
2024/04/06 11:04:53;;;;;;;266.23;134.40;;;;;;;;;;5030291;28;20445;-43
2024/04/06 11:07:19;;;;;;;266.47;136.33;;;;;;;;;;5030238;28;20425;-43
2024/04/06 11:09:45;;;;;;;265.17;136.53;;;;;;;;;;5030296;28;20415;-46
2024/04/06 11:12:11;;;;;;;265.50;139.63;;;;;;;;;;5030499;28;20472;-43
2024/04/06 11:14:37;;;;;;;265.13;143.87;;;;;;;;;;5030538;28;20483;-45
2024/04/06 11:17:05;;;;;;;266.20;144.70;;;;;;;;;;5030194;28;20465;-43
2024/04/06 11:19:31;;;;;;;265.23;144.20;;;;;;;;;;5030167;28;20928;-43
2024/04/06 11:22:03;;;;;;;261.80;142.40;;;;;;;;;;5030314;28;20410;-43
2024/04/06 11:24:29;;;;;;;269.13;153.30;;;;;;;;;;5030354;28;20414;-45
2024/04/06 11:27:04;;;;;;;265.57;147.33;;;;;;;;;;5029787;28;20462;-44
2024/04/06 11:29:30;;;;;;;263.83;139.47;;;;;;;;;;5030109;28;20898;-43
2024/04/06 11:31:56;;;;;;;270.37;151.33;;;;;;;;;;5030005;28;20414;-43
2024/04/06 11:34:22;;;;;;;266.60;143.93;;;;;;;;;;5031883;28;20418;-42
2024/04/06 11:36:48;;;;;;;262.40;135.30;;;;;;;;;;5033659;28;20481;-43
2024/04/06 11:39:14;;;;;;;263.07;137.93;;;;;;;;;;5034026;28;20414;-43
2024/04/06 11:41:40;;;;;;;264.00;138.73;;;;;;;;;;5056679;22;20539;-44
2024/04/06 11:44:06;;;;;;;266.37;144.40;;;;;;;;;;5033570;28;20418;-44
2024/04/06 11:46:34;;;;;;;267.07;144.73;;;;;;;;;;5032995;28;20421;-45
2024/04/06 11:49:00;;;;;;;267.70;143.03;;;;;;;;;;5033355;28;21035;-44
2024/04/06 11:51:26;;;;;;;264.93;133.70;;;;;;;;;;5040327;28;20429;-44
2024/04/06 11:53:52;;;;;;;263.93;134.93;;;;;;;;;;5052457;28;20405;-44
2024/04/06 11:56:19;;;;;;;265.00;140.23;;;;;;;;;;5053377;28;20467;-45
2024/04/06 11:58:45;;;;;;;273.10;160.90;;;;;;;;;;5053319;28;21006;-44
2024/04/06 12:01:11;;;;;;;266.10;145.80;;;;;;;;;;5053270;28;20525;-44
2024/04/06 12:03:37;;;;;;;266.83;150.07;;;;;;;;;;5053185;28;20414;-45
2024/04/06 12:06:03;;;;;;;263.53;142.13;;;;;;;;;;5052501;28;20809;-45
2024/04/06 12:08:29;;;;;;;264.60;149.57;;;;;;;;;;5053259;28;20414;-44
2024/04/06 12:10:55;;;;;;;265.20;144.17;;;;;;;;;;5052772;28;20478;-44
2024/04/06 12:13:21;;;;;;;265.33;149.37;;;;;;;;;;5053229;28;20884;-44
2024/04/06 12:15:47;;;;;;;264.93;146.53;;;;;;;;;;5052613;28;20409;-45
2024/04/06 12:18:13;;;;;;;265.80;150.40;;;;;;;;;;5052797;28;21069;-44
2024/04/06 12:20:39;;;;;;;263.93;145.73;;;;;;;;;;5052746;28;20409;-44
2024/04/06 12:23:05;;;;;;;265.17;145.90;;;;;;;;;;5052790;28;20470;-45
2024/04/06 12:25:31;;;;;;;265.50;149.07;;;;;;;;;;5052491;28;20781;-44
2024/04/06 12:27:57;;;;;;;267.47;152.17;;;;;;;;;;5052588;28;20899;-44
2024/04/06 12:30:23;;;;;;;267.87;151.23;;;;;;;;;;5050267;28;20839;-45
2024/04/06 12:32:49;;;;;;;269.63;158.33;;;;;;;;;;5052050;28;20452;-45
2024/04/06 12:35:15;;;;;;;286.53;183.80;;;;;;;;;;5050705;28;20459;-44
2024/04/06 12:37:43;;;;;;;264.03;151.20;;;;;;;;;;5045173;28;20465;-44
2024/04/06 12:40:09;;;;;;;270.57;162.83;;;;;;;;;;5049056;28;20768;-45
2024/04/06 12:42:35;;;;;;;265.20;154.80;;;;;;;;;;5052159;28;20444;-45
2024/04/06 12:45:01;;;;;;;269.77;157.93;;;;;;;;;;5051867;28;20471;-45
2024/04/06 12:47:27;;;;;;;265.87;152.93;;;;;;;;;;5048745;28;20421;-44
2024/04/06 12:49:53;;;;;;;268.33;153.53;;;;;;;;;;5051850;28;20509;-44
2024/04/06 12:52:19;;;;;;;262.30;145.27;;;;;;;;;;5052003;28;20951;-44
2024/04/06 12:54:45;;;;;;;264.20;148.67;;;;;;;;;;5051863;28;20405;-45
2024/04/06 13:00:09;;;;;;;263.70;149.30;;;;;;;;;;5034114;28;20909;-45
2024/04/06 13:02:36;;;;;;;263.53;152.77;;;;;;;;;;5051805;28;20464;-44
2024/04/06 13:05:02;;;;;;;264.17;154.03;;;;;;;;;;5050945;28;20418;-45
2024/04/06 13:07:28;;;;;;;260.90;143.83;;;;;;;;;;5051585;28;20420;-44
2024/04/06 13:09:59;;;;;;;263.03;149.53;;;;;;;;;;5051566;28;20915;-44
2024/04/06 13:12:30;;;;;;;262.67;150.03;;;;;;;;;;5051531;28;20524;-44
2024/04/06 13:14:56;;;;;;;268.17;155.93;;;;;;;;;;5033362;28;20924;-45
2024/04/06 13:17:22;;;;;;;265.90;151.23;;;;;;;;;;5051168;28;20464;-44
2024/04/06 13:19:48;;;;;;;269.60;158.50;;;;;;;;;;5051541;28;20780;-44
2024/04/06 13:22:14;;;;;;;263.30;147.10;;;;;;;;;;5051376;28;20429;-45
2024/04/06 13:24:40;;;;;;;260.93;143.37;;;;;;;;;;5052194;28;20421;-44
2024/04/06 13:27:06;;;;;;;265.53;150.13;;;;;;;;;;5050487;28;20504;-44
2024/04/06 13:29:32;;;;;;;264.17;149.10;;;;;;;;;;5051351;28;20637;-45
2024/04/06 13:31:58;;;;;;;264.43;148.53;;;;;;;;;;5051298;28;20433;-44
2024/04/06 13:34:24;;;;;;;266.67;156.10;;;;;;;;;;5051493;28;20915;-44
2024/04/06 13:36:50;;;;;;;266.17;148.93;;;;;;;;;;5047220;28;20467;-44
2024/04/06 13:39:16;;;;;;;264.93;146.77;;;;;;;;;;5051070;28;20417;-44
2024/04/06 13:41:42;;;;;;;264.23;143.50;;;;;;;;;;5051036;28;20456;-44
2024/04/06 13:44:08;;;;;;;267.73;144.93;;;;;;;;;;5050870;28;20476;-44
2024/04/06 13:46:34;;;;;;;264.60;143.27;;;;;;;;;;5045446;28;20921;-45
2024/04/06 13:49:00;;;;;;;263.20;141.80;;;;;;;;;;5050818;28;20413;-44
2024/04/06 13:51:26;;;;;;;268.43;150.53;;;;;;;;;;5050955;28;20527;-44
2024/04/06 13:53:51;;;;;;;256.67;130.07;;;;;;;;;;5050856;28;20487;-44
2024/04/06 13:56:17;;;;;;;262.47;141.70;;;;;;;;;;5050365;28;20457;-44